Terminal Aerodrome Forecast
Issued by NWS

Home | Current Version | Previous Version | Text Only | Print | Product List | Glossary On
Versions: 1 2 3 4 5 6 7 8 9 10 11 12 13 14 15 16 17 18 19 20
000
FTUS43 KDLH 260500
TAFHYR
TAF
KHYR 260525Z 2606/2706 VRB03KT 1SM -SN OVC022
     FM260800 02004KT 3SM -SN BR OVC017
     FM261300 36007KT P6SM -SN OVC022
     FM262000 01005KT P6SM BKN028 OVC050
     FM270400 02004KT 4SM -SN BKN016 OVC027=

USA.gov is the U.S. government's official web portal to all federal, state and local government web resources and services.